Portada
METAR-TAF:

METAR-TAF

Aeropuertos :

Aeropuerto de Perpiñán-Rivesaltes

Perpiñán, Francia

latitud: 42-44N, longitud: 002-52E, altitud: 43 m

Observación

El informe se hizo hace 23 minutos, a las 17:00 UTC
Viento 24 kt del oeste-noroeste con ráfagas de 39 kt
Temperatura 22°C
Humedad 46%
Presión 1021 hPa
Visibilidad 10 km o más
Escasas nubes a una altura de 10000 ft

METAR: LFMP 261700Z AUTO 30024G39KT 9999 FEW100 22/10 Q1021 NOSIG

Hora: 19:23 (17:23 UTC)

Pronóstico

El informe se hizo hace 3 horas y 23 minutos, a las 14:00 UTC
Pronóstico válido del 26 a las 15 UTC al 27 a las 15 UTC
Viento 20 kt del oeste-noroeste
Visibilidad 10 km o más
sin nubes por debajo de 1500 m y sin presencia de cumulonimbus.
Temporalmente
del 26 a las 15 UTC al 27 a las 15 UTC
Viento 22 kt del oeste-noroeste con ráfagas de 36 kt

TAF: LFMP 261400Z 2615/2715 30020KT CAVOK TEMPO 2615/2715 30022G36KT

Observaciones y pronósticos meteorológicos de más de 4000 aeropuertos (mensajes METAR y TAF).

Los puntos amarillos y rojos representan las estaciones disponibles.

Ponga el ratón en el punto deseado para ver el nombre de la estación.

Haga clic para ver las observaciones y los pronósticos meteorológicos.

Para cambiar el mapa : haga clic en los botones verdes con una cruz de color negro para hacer un zoom, en el botón verde con un guión para alejar o en las flechas verdes para mapas adyacentes.


METAR-TAF: